createdAt,value
2022-11-14T00:00:52.570Z,6.78
2022-11-14T00:03:39.392Z,6.95
2022-11-14T00:06:25.515Z,7.35
2022-11-14T00:09:11.314Z,6.30
2022-11-14T00:11:57.173Z,6.07
2022-11-14T00:14:43.384Z,5.93
2022-11-14T00:17:29.034Z,6.80
2022-11-14T00:20:14.943Z,4.28
2022-11-14T00:23:01.277Z,4.40
2022-11-14T00:25:47.584Z,4.50
2022-11-14T00:28:33.806Z,4.75
2022-11-14T00:31:19.813Z,4.65
2022-11-14T00:34:06.332Z,4.55
2022-11-14T00:36:51.989Z,5.40
2022-11-14T00:39:37.872Z,5.15
2022-11-14T00:42:23.982Z,5.60
2022-11-14T00:45:10.354Z,5.13
2022-11-14T00:47:55.928Z,5.07
2022-11-14T00:50:42.385Z,4.90
2022-11-14T00:53:28.009Z,5.32
2022-11-14T00:56:13.849Z,5.47
2022-11-14T00:59:00.109Z,4.55
2022-11-14T01:01:45.772Z,4.82
2022-11-14T01:04:32.556Z,5.25
2022-11-14T01:07:18.530Z,4.88
2022-11-14T01:10:05.171Z,4.88
2022-11-14T01:12:52.077Z,4.55
2022-11-14T01:15:46.293Z,4.78
2022-11-14T01:18:32.933Z,5.28
2022-11-14T01:21:18.530Z,4.25
2022-11-14T01:24:05.264Z,5.00
2022-11-14T01:26:51.072Z,4.25
2022-11-14T01:29:36.674Z,4.00
2022-11-14T01:32:22.432Z,3.60
2022-11-14T01:35:08.477Z,3.75
2022-11-14T01:37:54.745Z,3.97
2022-11-14T01:40:45.710Z,4.70
2022-11-14T01:43:38.040Z,4.47
2022-11-14T01:46:26.184Z,5.47
2022-11-14T01:49:22.139Z,5.35
2022-11-14T01:52:19.601Z,10.02
2022-11-14T01:55:08.186Z,10.65
2022-11-14T01:57:54.394Z,9.05
2022-11-14T02:00:43.804Z,6.60
2022-11-14T02:03:30.159Z,6.30
2022-11-14T02:06:19.188Z,4.93
2022-11-14T02:09:07.493Z,4.80
2022-11-14T02:11:55.310Z,5.28
2022-11-14T02:14:45.440Z,4.60
2022-11-14T02:17:32.970Z,5.03
2022-11-14T02:20:23.833Z,5.10
2022-11-14T02:23:11.433Z,4.60
2022-11-14T02:25:58.179Z,5.18
2022-11-14T02:28:44.176Z,4.72
2022-11-14T02:31:30.455Z,4.95
2022-11-14T02:34:20.046Z,4.45
2022-11-14T02:37:06.156Z,4.20
2022-11-14T02:39:51.789Z,9.68
2022-11-14T02:42:37.927Z,7.28
2022-11-14T02:45:24.175Z,6.68
2022-11-14T02:48:10.370Z,8.25
2022-11-14T02:50:56.356Z,8.32
2022-11-14T02:53:42.120Z,8.30
2022-11-14T02:56:28.092Z,7.65
2022-11-14T02:59:13.833Z,6.57
2022-11-14T03:01:59.534Z,8.00
2022-11-14T03:04:45.693Z,6.78
2022-11-14T03:07:31.872Z,6.15
2022-11-14T03:10:18.157Z,5.93
2022-11-14T03:13:03.907Z,6.82
2022-11-14T03:15:51.851Z,6.60
2022-11-14T03:18:38.150Z,5.95
2022-11-14T03:21:24.515Z,5.40
2022-11-14T03:24:10.604Z,6.63
2022-11-14T03:26:56.449Z,7.63
2022-11-14T03:29:42.144Z,6.35
2022-11-14T03:32:27.978Z,5.72
2022-11-14T03:35:13.817Z,6.25
2022-11-14T03:37:59.987Z,6.15
2022-11-14T03:40:45.953Z,7.60
2022-11-14T03:43:34.149Z,7.03
2022-11-14T03:46:20.400Z,5.68
2022-11-14T03:49:06.514Z,6.60
2022-11-14T03:51:52.659Z,5.65
2022-11-14T03:54:38.990Z,5.97
2022-11-14T03:57:24.988Z,5.15
2022-11-14T04:00:11.298Z,4.78
2022-11-14T04:02:57.956Z,4.53
2022-11-14T04:05:45.548Z,4.90
2022-11-14T04:08:32.276Z,4.70
2022-11-14T04:11:19.179Z,4.50
2022-11-14T04:14:05.436Z,4.43
2022-11-14T04:16:51.391Z,4.70
2022-11-14T04:19:37.147Z,4.45
2022-11-14T04:22:23.971Z,4.80
2022-11-14T04:25:10.323Z,4.03
2022-11-14T04:27:56.558Z,4.90
2022-11-14T04:30:46.424Z,4.53
2022-11-14T04:33:32.786Z,4.85
2022-11-14T04:36:18.658Z,4.55
2022-11-14T04:39:04.596Z,3.88
2022-11-14T04:41:50.277Z,3.90
2022-11-14T04:44:36.035Z,4.72
2022-11-14T04:47:21.896Z,4.50
2022-11-14T04:50:08.230Z,3.67
2022-11-14T04:52:54.463Z,4.75
2022-11-14T04:55:40.457Z,4.20
2022-11-14T04:58:26.967Z,3.63
2022-11-14T05:01:14.811Z,4.13
2022-11-14T05:04:00.759Z,4.03
2022-11-14T05:06:46.690Z,4.53
2022-11-14T05:09:32.578Z,4.05
2022-11-14T05:12:18.793Z,4.10
2022-11-14T05:15:05.863Z,3.88
2022-11-14T05:17:51.833Z,4.32
2022-11-14T05:20:37.537Z,3.70
2022-11-14T05:23:27.356Z,3.65
2022-11-14T05:26:16.096Z,3.42
2022-11-14T05:29:02.108Z,3.80
2022-11-14T05:31:48.137Z,3.63
2022-11-14T05:34:34.072Z,3.53
2022-11-14T05:37:20.395Z,3.67
2022-11-14T05:40:08.137Z,4.07
2022-11-14T05:42:57.071Z,3.72
2022-11-14T05:45:45.298Z,4.20
2022-11-14T05:48:32.100Z,4.00
2022-11-14T05:51:18.234Z,4.05
2022-11-14T05:54:04.024Z,3.72
2022-11-14T05:56:49.698Z,3.60
2022-11-14T05:59:35.376Z,4.10
2022-11-14T06:02:21.263Z,3.72
2022-11-14T06:05:07.712Z,4.05
2022-11-14T06:07:57.819Z,4.10
2022-11-14T06:10:43.799Z,3.80
2022-11-14T06:13:29.376Z,5.25
2022-11-14T06:16:17.955Z,4.13
2022-11-14T06:19:05.536Z,3.83
2022-11-14T06:21:51.602Z,4.00
2022-11-14T06:24:37.412Z,4.70
2022-11-14T06:27:23.902Z,4.72
2022-11-14T06:30:10.291Z,4.70
2022-11-14T06:32:59.462Z,4.60
2022-11-14T06:35:45.465Z,4.78
2022-11-14T06:38:33.132Z,4.43
2022-11-14T06:41:23.842Z,4.50
2022-11-14T06:44:10.582Z,3.65
2022-11-14T06:46:58.258Z,4.20
2022-11-14T06:49:44.206Z,6.15
2022-11-14T06:52:31.044Z,7.05
2022-11-14T06:55:20.881Z,4.40
2022-11-14T06:58:09.985Z,3.78
2022-11-14T07:00:57.018Z,3.92
2022-11-14T07:03:43.940Z,3.92
2022-11-14T07:06:31.517Z,4.28
2022-11-14T07:09:17.516Z,3.47
2022-11-14T07:12:03.331Z,3.80
2022-11-14T07:14:49.273Z,4.25
2022-11-14T07:17:36.469Z,4.30
2022-11-14T07:20:22.761Z,3.88
2022-11-14T07:23:08.679Z,5.10
2022-11-14T07:25:54.390Z,4.70
2022-11-14T07:28:42.304Z,3.65
2022-11-14T07:31:28.802Z,5.90
2022-11-14T07:34:15.591Z,5.15
2022-11-14T07:37:01.221Z,5.05
2022-11-14T07:39:47.085Z,4.00
2022-11-14T07:42:32.880Z,3.50
2022-11-14T07:45:20.192Z,3.15
2022-11-14T07:48:06.521Z,3.55
2022-11-14T07:50:52.624Z,3.30
2022-11-14T07:53:38.610Z,3.50
2022-11-14T07:56:26.605Z,4.20
2022-11-14T07:59:12.719Z,4.03
2022-11-14T08:01:58.858Z,3.25
2022-11-14T08:04:44.594Z,3.42
2022-11-14T08:07:30.462Z,4.00
2022-11-14T08:10:17.887Z,7.70
2022-11-14T08:16:14.056Z,6.00
2022-11-14T08:19:01.003Z,3.92
2022-11-14T08:21:46.885Z,4.57
2022-11-14T08:24:32.618Z,3.50
2022-11-14T08:27:18.354Z,3.50
2022-11-14T08:30:06.350Z,4.00
2022-11-14T08:32:52.549Z,3.75
2022-11-14T08:35:38.821Z,4.35
2022-11-14T08:38:24.653Z,3.85
2022-11-14T08:41:11.225Z,5.22
2022-11-14T08:43:57.180Z,5.00
2022-11-14T08:46:43.247Z,5.47
2022-11-14T08:49:28.827Z,5.30
2022-11-14T08:52:16.854Z,4.47
2022-11-14T08:55:05.116Z,4.10
2022-11-14T08:57:53.619Z,4.28
2022-11-14T09:00:42.551Z,4.20
2022-11-14T09:03:28.562Z,3.63
2022-11-14T09:06:14.321Z,4.38
2022-11-14T09:09:00.109Z,4.30
2022-11-14T09:11:46.018Z,4.68
2022-11-14T09:14:31.827Z,4.25
2022-11-14T09:17:17.494Z,5.13
2022-11-14T09:20:07.855Z,4.53
2022-11-14T09:22:54.082Z,4.55
2022-11-14T09:25:40.257Z,5.00
2022-11-14T09:28:26.855Z,6.07
2022-11-14T09:31:13.928Z,5.85
2022-11-14T09:33:59.939Z,5.85
2022-11-14T09:36:46.821Z,6.32
2022-11-14T09:39:33.472Z,6.18
2022-11-14T09:42:48.122Z,6.57
2022-11-14T09:45:42.097Z,5.75
2022-11-14T09:48:32.606Z,6.32
2022-11-14T09:51:24.769Z,5.88
2022-11-14T09:54:26.870Z,5.90
2022-11-14T09:57:20.373Z,5.43
2022-11-14T10:00:21.016Z,5.40
2022-11-14T10:03:33.315Z,4.32
2022-11-14T10:06:28.457Z,4.15
2022-11-14T10:09:15.035Z,3.90
2022-11-14T10:12:21.637Z,3.25
2022-11-14T10:15:27.470Z,3.28
2022-11-14T10:18:39.058Z,3.40
2022-11-14T10:21:46.351Z,3.38
2022-11-14T10:24:41.436Z,3.53
2022-11-14T10:27:42.543Z,3.17
2022-11-14T10:30:45.069Z,3.13
2022-11-14T10:33:49.146Z,3.38
2022-11-14T10:36:52.799Z,3.80
2022-11-14T10:39:52.665Z,3.90
2022-11-14T10:42:41.829Z,2.83
2022-11-14T10:45:40.476Z,3.20
2022-11-14T10:48:40.545Z,2.95
2022-11-14T10:51:41.515Z,2.60
2022-11-14T10:54:41.361Z,2.30
2022-11-14T10:57:28.939Z,2.13
2022-11-14T11:00:18.147Z,2.25
2022-11-14T11:03:04.305Z,2.08
2022-11-14T11:05:57.031Z,2.20
2022-11-14T11:09:02.433Z,2.20
2022-11-14T11:12:01.955Z,1.92
2022-11-14T11:14:51.647Z,2.20
2022-11-14T11:17:42.985Z,2.20
2022-11-14T11:20:41.231Z,2.33
2022-11-14T11:23:28.559Z,2.42
2022-11-14T11:26:22.373Z,2.15
2022-11-14T11:29:17.191Z,2.35
2022-11-14T11:32:03.409Z,1.98
2022-11-14T11:34:49.801Z,1.85
2022-11-14T11:37:59.367Z,2.25
2022-11-14T11:40:48.620Z,4.13
2022-11-14T11:43:55.540Z,2.88
2022-11-14T11:46:52.938Z,1.83
2022-11-14T11:49:53.476Z,1.75
2022-11-14T11:52:49.166Z,1.80
2022-11-14T11:55:46.671Z,1.50
2022-11-14T11:58:55.790Z,1.85
2022-11-14T12:01:43.616Z,1.85
2022-11-14T12:04:30.413Z,1.60
2022-11-14T12:07:37.814Z,1.85
2022-11-14T12:10:38.193Z,1.45
2022-11-14T12:13:53.505Z,1.92
2022-11-14T12:16:57.349Z,1.65
2022-11-14T12:19:49.828Z,1.77
2022-11-14T12:22:44.121Z,1.67
2022-11-14T12:25:44.967Z,1.60
2022-11-14T12:28:59.293Z,1.70
2022-11-14T12:31:46.380Z,1.75
2022-11-14T12:34:44.098Z,1.95
2022-11-14T12:37:44.040Z,1.92
2022-11-14T12:40:33.886Z,3.57
2022-11-14T12:43:37.540Z,2.60
2022-11-14T12:46:24.070Z,2.00
2022-11-14T12:49:50.228Z,2.42
2022-11-14T12:52:45.494Z,1.90
2022-11-14T12:55:31.337Z,1.80
2022-11-14T12:58:57.290Z,2.13
2022-11-14T13:02:22.507Z,2.13
2022-11-14T13:05:22.481Z,1.90
2022-11-14T13:08:28.916Z,2.13
2022-11-14T13:12:00.227Z,1.92
2022-11-14T13:15:09.456Z,2.72
2022-11-14T13:18:42.244Z,3.55
2022-11-14T13:21:48.499Z,3.97
2022-11-14T13:24:58.902Z,3.30
2022-11-14T13:28:06.568Z,3.10
2022-11-14T13:31:16.081Z,3.13
2022-11-14T13:34:22.516Z,3.33
2022-11-14T13:37:31.561Z,3.78
2022-11-14T13:40:20.033Z,4.72
2022-11-14T13:43:12.969Z,4.47
2022-11-14T13:46:07.295Z,3.85
2022-11-14T13:48:59.122Z,8.23
2022-11-14T13:51:45.164Z,9.48
2022-11-14T13:54:31.712Z,6.00
2022-11-14T13:57:53.039Z,4.43
2022-11-14T14:01:31.165Z,4.28
2022-11-14T14:04:26.040Z,4.32
2022-11-14T14:07:24.476Z,3.50
2022-11-14T14:10:20.955Z,3.20
2022-11-14T14:13:41.040Z,3.30
2022-11-14T14:16:44.714Z,3.67
2022-11-14T14:19:58.753Z,3.42
2022-11-14T14:23:17.119Z,4.03
2022-11-14T14:26:55.904Z,4.68
2022-11-14T14:30:21.231Z,5.07
2022-11-14T14:33:15.430Z,3.55
2022-11-14T14:36:01.344Z,3.97
2022-11-14T14:38:47.928Z,4.15
2022-11-14T14:41:35.281Z,3.90
2022-11-14T14:44:25.828Z,3.85
2022-11-14T14:47:41.230Z,3.33
2022-11-14T14:50:51.535Z,3.67
2022-11-14T14:53:38.875Z,3.35
2022-11-14T14:56:26.117Z,3.53
2022-11-14T14:59:21.643Z,4.10
2022-11-14T15:02:16.449Z,5.05
2022-11-14T15:05:04.599Z,5.00
2022-11-14T15:07:52.818Z,4.32
2022-11-14T15:10:40.031Z,5.05
2022-11-14T15:13:28.464Z,5.30
2022-11-14T15:16:15.558Z,6.63
2022-11-14T15:19:02.053Z,6.15
2022-11-14T15:22:11.011Z,4.85
2022-11-14T15:25:11.117Z,4.75
2022-11-14T15:28:00.909Z,5.70
2022-11-14T15:31:17.514Z,5.45
2022-11-14T15:34:30.520Z,11.43
2022-11-14T15:37:19.218Z,9.75
2022-11-14T15:40:35.473Z,12.02
2022-11-14T15:43:43.070Z,12.35
2022-11-14T15:46:39.448Z,12.40
2022-11-14T15:49:28.396Z,10.10
2022-11-14T15:52:29.721Z,13.57
2022-11-14T15:55:19.182Z,14.70
2022-11-14T16:01:17.101Z,5.18
2022-11-14T16:04:03.306Z,6.82
2022-11-14T16:06:49.255Z,6.30
2022-11-14T16:09:35.417Z,6.43
2022-11-14T16:12:21.549Z,5.90
2022-11-14T16:15:08.575Z,5.00
2022-11-14T16:17:54.489Z,5.45
2022-11-14T16:20:42.155Z,6.78
2022-11-14T16:23:28.282Z,11.27
2022-11-14T16:26:14.212Z,7.70
2022-11-14T16:29:00.132Z,6.78
2022-11-14T16:31:46.110Z,6.25
2022-11-14T16:34:31.869Z,7.88
2022-11-14T16:37:19.411Z,5.78
2022-11-14T16:40:07.712Z,6.70
2022-11-14T16:42:57.636Z,6.60
2022-11-14T16:45:45.881Z,6.55
2022-11-14T16:48:32.669Z,5.60
2022-11-14T16:51:46.316Z,4.93
2022-11-14T16:54:25.235Z,4.80
2022-11-14T16:57:11.420Z,5.05
2022-11-14T16:59:59.157Z,5.85
2022-11-14T17:02:46.608Z,6.70
2022-11-14T17:05:44.304Z,6.50
2022-11-14T17:08:30.437Z,6.47
2022-11-14T17:11:16.249Z,8.65
2022-11-14T17:14:02.413Z,7.57
2022-11-14T17:16:48.387Z,8.32
2022-11-14T17:19:34.246Z,7.95
2022-11-14T17:22:20.253Z,5.43
2022-11-14T17:25:06.679Z,4.15
2022-11-14T17:27:52.607Z,5.43
2022-11-14T17:30:46.134Z,7.68
2022-11-14T17:33:32.283Z,6.70
2022-11-14T17:36:19.148Z,8.73
2022-11-14T17:39:04.846Z,9.00
2022-11-14T17:41:50.639Z,8.00
2022-11-14T17:44:36.377Z,8.52
2022-11-14T17:47:22.115Z,7.68
2022-11-14T17:50:08.003Z,6.70
2022-11-14T17:52:54.247Z,8.13
2022-11-14T17:55:40.269Z,8.68
2022-11-14T17:58:29.200Z,8.48
2022-11-14T18:01:18.047Z,6.07
2022-11-14T18:04:06.424Z,6.38
2022-11-14T18:06:53.301Z,7.60
2022-11-14T18:09:40.329Z,11.35
2022-11-14T18:12:26.231Z,11.18
2022-11-14T18:15:15.675Z,11.02
2022-11-14T18:18:01.430Z,10.77
2022-11-14T18:20:47.763Z,9.80
2022-11-14T18:23:35.374Z,9.00
2022-11-14T18:26:27.248Z,8.90
2022-11-14T18:29:15.690Z,7.57
2022-11-14T18:32:01.693Z,8.20
2022-11-14T18:34:47.387Z,7.78
2022-11-14T18:37:38.149Z,7.63
2022-11-14T18:40:24.291Z,9.10
2022-11-14T18:43:11.433Z,7.45
2022-11-14T18:46:04.184Z,6.47
2022-11-14T18:48:54.166Z,7.88
2022-11-14T18:51:42.577Z,7.43
2022-11-14T18:54:28.520Z,6.95
2022-11-14T18:57:14.479Z,6.80
2022-11-14T19:00:00.284Z,6.85
2022-11-14T19:02:50.753Z,9.15
2022-11-14T19:05:37.054Z,11.45
2022-11-14T19:08:27.077Z,10.38
2022-11-14T19:11:35.769Z,10.23
2022-11-14T19:14:22.502Z,9.57
2022-11-14T19:17:08.860Z,8.98
2022-11-14T19:19:54.827Z,8.82
2022-11-14T19:22:41.735Z,7.95
2022-11-14T19:25:27.404Z,7.93
2022-11-14T19:28:13.645Z,9.15
2022-11-14T19:31:03.377Z,8.48
2022-11-14T19:33:49.687Z,8.67
2022-11-14T19:36:58.849Z,9.82
2022-11-14T19:39:42.066Z,8.52
2022-11-14T19:42:28.039Z,9.57
2022-11-14T19:45:13.855Z,9.60
2022-11-14T19:47:59.894Z,9.18
2022-11-14T19:50:45.740Z,9.40
2022-11-14T19:53:34.848Z,11.43
2022-11-14T19:56:21.783Z,9.93
2022-11-14T19:59:13.800Z,9.55
2022-11-14T20:02:01.042Z,12.13
2022-11-14T20:04:50.358Z,14.70
2022-11-14T20:07:36.475Z,17.23
2022-11-14T20:10:22.452Z,17.55
2022-11-14T20:13:08.337Z,15.90
2022-11-14T20:15:55.720Z,11.13
2022-11-14T20:18:43.296Z,9.77
2022-11-14T20:21:31.542Z,9.25
2022-11-14T20:24:21.669Z,10.23
2022-11-14T20:27:07.276Z,8.63
2022-11-14T20:29:53.689Z,9.02
2022-11-14T20:32:39.436Z,9.20
2022-11-14T20:35:25.174Z,10.02
2022-11-14T20:38:12.028Z,10.65
2022-11-14T20:40:59.062Z,9.85
2022-11-14T20:43:45.262Z,10.85
2022-11-14T20:46:31.072Z,9.85
2022-11-14T20:49:17.020Z,9.38
2022-11-14T20:52:05.006Z,9.25
2022-11-14T20:54:50.801Z,10.32
2022-11-14T20:57:37.211Z,8.57
2022-11-14T21:00:23.522Z,9.90
2022-11-14T21:03:10.810Z,10.63
2022-11-14T21:05:56.940Z,8.57
2022-11-14T21:08:43.996Z,8.95
2022-11-14T21:11:29.948Z,9.20
2022-11-14T21:14:15.714Z,9.98
2022-11-14T21:17:01.396Z,7.97
2022-11-14T21:19:47.155Z,9.88
2022-11-14T21:22:33.287Z,9.48
2022-11-14T21:25:18.953Z,9.75
2022-11-14T21:28:04.741Z,11.07
2022-11-14T21:30:54.666Z,9.80
2022-11-14T21:33:42.109Z,9.63
2022-11-14T21:36:46.085Z,10.13
2022-11-14T21:39:32.364Z,10.77
2022-11-14T21:42:18.879Z,10.50
2022-11-14T21:45:06.230Z,15.77
2022-11-14T21:47:52.146Z,13.35
2022-11-14T21:50:37.821Z,13.60
2022-11-14T21:53:23.845Z,12.05
2022-11-14T21:56:18.097Z,10.95
2022-11-14T21:59:14.581Z,10.93
2022-11-14T22:02:30.151Z,10.00
2022-11-14T22:05:16.114Z,9.75
2022-11-14T22:08:01.927Z,11.32
2022-11-14T22:10:47.658Z,11.95
2022-11-14T22:13:33.807Z,12.30
2022-11-14T22:16:20.036Z,10.95
2022-11-14T22:19:06.465Z,13.77
2022-11-14T22:21:52.437Z,13.32
2022-11-14T22:24:38.507Z,10.88
2022-11-14T22:27:24.503Z,10.63
2022-11-14T22:30:12.004Z,12.93
2022-11-14T22:33:00.437Z,10.80
2022-11-14T22:35:46.255Z,8.93
2022-11-14T22:38:33.578Z,9.85
2022-11-14T22:41:24.358Z,10.23
2022-11-14T22:44:13.875Z,14.90
2022-11-14T22:46:59.739Z,11.65
2022-11-14T22:49:45.579Z,11.75
2022-11-14T22:52:31.415Z,10.02
2022-11-14T22:55:18.338Z,9.52
2022-11-14T22:58:04.443Z,10.43
2022-11-14T23:00:54.290Z,8.95
2022-11-14T23:03:41.802Z,10.00
2022-11-14T23:06:29.029Z,8.50
2022-11-14T23:09:15.078Z,8.20
2022-11-14T23:12:01.189Z,8.52
2022-11-14T23:14:46.901Z,8.05
2022-11-14T23:17:32.741Z,8.30
2022-11-14T23:20:19.847Z,8.48
2022-11-14T23:23:05.516Z,8.85
2022-11-14T23:25:51.152Z,10.13
2022-11-14T23:28:37.530Z,10.35
2022-11-14T23:31:24.906Z,9.13
2022-11-14T23:34:11.943Z,9.27
2022-11-14T23:36:57.740Z,9.88
2022-11-14T23:39:43.536Z,9.50
2022-11-14T23:42:29.690Z,11.68
2022-11-14T23:45:15.260Z,11.45
2022-11-14T23:48:01.489Z,11.95
2022-11-14T23:50:52.310Z,11.93
2022-11-14T23:53:38.013Z,9.85
2022-11-14T23:56:23.851Z,9.52
2022-11-14T23:59:09.789Z,9.00
